Roswell Industrial, NM

5:02 PM MDT on July 24, 2014 (GMT -0600)
Roswell Industrial (KROW) Elev 3668 ft | 33.30 °N, 104.53 °W | Change Station

Current weather conditions updated 11 minutes ago

Clear
Clear
98 °F
Feels Like 98 °F
N
15
Wind Variable Wind from SE
Gusts 22 mph

Tomorrow is forecast to be Warmer than today.

Today
High -- | Low -- °F
--% Chance of Precip.
Yesterday
High -- | Low -- °F
Precip. -- in
6:05 AM 8:03 PM
Waning Crescent, 4% visible
Pressure 29.86 in
Visibility 10.0 miles
Clouds Clear
Dew Point 45 °F
Humidity 16%
Rainfall 0.00 in
Snow Depth Not available.
UV 5 out of 12
Pollen 4.70 out of 12
Air Quality Not available.
Flu Activity Not available.
METAR KROW 242251Z 13013G19KT 10SM CLR 37/07 A3007 RMK AO2 SLP109 T03670072

More Conditions Fewer Conditions

Pressure 29.86 in
Visibility 10.0 miles
Clouds Clear
Dew Point 45 °F
Humidity 16%
Rainfall 0.00 in
Snow Depth Not available.
UV 5 out of 12
Pollen 4.70 out of 12
Air Quality Not available.
Flu Activity Not available.
METAR KROW 242251Z 13013G19KT 10SM CLR 37/07 A3007 RMK AO2 SLP109 T03670072

More Conditions Fewer Conditions

10-Day Weather Forecast

Almanac

Astronomy

Jul. 24, 2014 Rise Set
Actual Time 6:05 AM MDT 8:03 PM MDT
Civil Twilight 5:37 AM MDT 8:30 PM MDT
Nautical Twilight 5:04 AM MDT 9:04 PM MDT
Astronomical Twilight 4:28 AM MDT 9:40 PM MDT
Moon 4:14 AM MDT 6:21 PM MDT
Length of Visible Light 14h 53m
Length of Day
13h 57m
Tomorrow will be 1m 21s shorter.
Waning Crescent, 4% of the Moon is Illuminated
Today
Waning Crescent
Jul 26
New
Aug 3
First Quarter
Aug 10
Full
Aug 17
Last Quarter

Today's Extremes

State Highs State Lows

Community

WunderPhotos

Upload Photos

1,737,158 photos uploaded!

Nearby

Snow Depth

Station Depth Elevation
Red River Pass #2 0 in 9850 ft
Silver Creek Divide 0 in 9000 ft

Earthquake Activity

City Distance Mag. Time & Date
No recent earthquake activity has been reported nearby.
Minimum magnitude displayed is 2.5.

Coastal Water Temperatures

Place Temperature
No Stations Reporting

Nearby Weather Stations

Station Location Temp. Heat Index Dew Point Humidity Wind Precip. Elev Updated Type
South Springs Acres, Roswell, NM 95.9 °F 94 °F 53 °F 24% SE  at  3.0 mph 0.00 in / hr 3599 ft 5:00 PM MDT Normal

Show More Stations Show Fewer Stations